sensor_id;sensor_type;location;lat;lon;timestamp;P1;durP1;ratioP1;P2;durP2;ratioP2
31728;SDS011;18309;43.658;1.312;2023-04-24T00:00:00;9.00;;;1.75;;
31728;SDS011;18309;43.658;1.312;2023-04-24T00:02:26;10.65;;;1.88;;
31728;SDS011;18309;43.658;1.312;2023-04-24T00:04:52;7.72;;;1.20;;
31728;SDS011;18309;43.658;1.312;2023-04-24T00:07:18;7.63;;;1.35;;
31728;SDS011;18309;43.658;1.312;2023-04-24T00:09:45;7.63;;;1.42;;
31728;SDS011;18309;43.658;1.312;2023-04-24T00:12:10;8.15;;;1.50;;
31728;SDS011;18309;43.658;1.312;2023-04-24T00:14:36;6.35;;;1.30;;
31728;SDS011;18309;43.658;1.312;2023-04-24T00:17:02;11.38;;;1.85;;
31728;SDS011;18309;43.658;1.312;2023-04-24T00:19:28;6.55;;;1.50;;
31728;SDS011;18309;43.658;1.312;2023-04-24T00:21:54;17.30;;;1.58;;
31728;SDS011;18309;43.658;1.312;2023-04-24T00:24:20;9.23;;;1.50;;
31728;SDS011;18309;43.658;1.312;2023-04-24T00:26:46;8.38;;;1.27;;
31728;SDS011;18309;43.658;1.312;2023-04-24T00:29:12;6.78;;;1.40;;
31728;SDS011;18309;43.658;1.312;2023-04-24T00:31:38;6.13;;;1.38;;
31728;SDS011;18309;43.658;1.312;2023-04-24T00:34:03;7.70;;;1.60;;
31728;SDS011;18309;43.658;1.312;2023-04-24T00:36:29;10.07;;;1.73;;
31728;SDS011;18309;43.658;1.312;2023-04-24T00:38:56;7.13;;;1.50;;
31728;SDS011;18309;43.658;1.312;2023-04-24T00:41:22;5.80;;;1.48;;
31728;SDS011;18309;43.658;1.312;2023-04-24T00:43:49;6.88;;;1.50;;
31728;SDS011;18309;43.658;1.312;2023-04-24T00:46:15;6.28;;;1.60;;
31728;SDS011;18309;43.658;1.312;2023-04-24T00:48:41;8.88;;;1.50;;
31728;SDS011;18309;43.658;1.312;2023-04-24T00:51:08;8.52;;;1.40;;
31728;SDS011;18309;43.658;1.312;2023-04-24T00:53:34;7.45;;;1.50;;
31728;SDS011;18309;43.658;1.312;2023-04-24T00:56:00;12.60;;;1.60;;
31728;SDS011;18309;43.658;1.312;2023-04-24T00:58:27;6.22;;;1.42;;
31728;SDS011;18309;43.658;1.312;2023-04-24T01:00:53;10.00;;;1.33;;
31728;SDS011;18309;43.658;1.312;2023-04-24T01:03:20;7.95;;;1.50;;
31728;SDS011;18309;43.658;1.312;2023-04-24T01:05:49;10.70;;;1.80;;
31728;SDS011;18309;43.658;1.312;2023-04-24T01:08:16;3.40;;;1.00;;
31728;SDS011;18309;43.658;1.312;2023-04-24T01:10:41;5.45;;;1.13;;
31728;SDS011;18309;43.658;1.312;2023-04-24T01:13:11;13.02;;;2.42;;
31728;SDS011;18309;43.658;1.312;2023-04-24T01:15:36;4.05;;;1.05;;
31728;SDS011;18309;43.658;1.312;2023-04-24T01:18:02;11.15;;;1.80;;
31728;SDS011;18309;43.658;1.312;2023-04-24T01:20:28;6.45;;;1.27;;
31728;SDS011;18309;43.658;1.312;2023-04-24T01:22:55;11.48;;;1.92;;
31728;SDS011;18309;43.658;1.312;2023-04-24T01:25:21;7.68;;;1.15;;
31728;SDS011;18309;43.658;1.312;2023-04-24T01:27:47;11.00;;;1.35;;
31728;SDS011;18309;43.658;1.312;2023-04-24T01:30:13;8.68;;;1.52;;
31728;SDS011;18309;43.658;1.312;2023-04-24T01:32:39;8.18;;;1.60;;
31728;SDS011;18309;43.658;1.312;2023-04-24T01:35:07;4.47;;;0.98;;
31728;SDS011;18309;43.658;1.312;2023-04-24T01:37:33;5.68;;;1.35;;
31728;SDS011;18309;43.658;1.312;2023-04-24T01:39:58;8.98;;;1.60;;
31728;SDS011;18309;43.658;1.312;2023-04-24T01:42:25;8.60;;;2.17;;
31728;SDS011;18309;43.658;1.312;2023-04-24T01:44:51;8.90;;;1.40;;
31728;SDS011;18309;43.658;1.312;2023-04-24T01:47:17;16.13;;;1.60;;
31728;SDS011;18309;43.658;1.312;2023-04-24T01:49:43;15.95;;;1.33;;
31728;SDS011;18309;43.658;1.312;2023-04-24T01:52:10;13.75;;;1.52;;
31728;SDS011;18309;43.658;1.312;2023-04-24T01:54:36;6.97;;;1.58;;
31728;SDS011;18309;43.658;1.312;2023-04-24T01:57:01;8.55;;;1.45;;
31728;SDS011;18309;43.658;1.312;2023-04-24T01:59:27;9.95;;;1.15;;
31728;SDS011;18309;43.658;1.312;2023-04-24T02:01:54;6.55;;;1.30;;
31728;SDS011;18309;43.658;1.312;2023-04-24T02:04:20;7.28;;;1.15;;
31728;SDS011;18309;43.658;1.312;2023-04-24T02:06:46;11.65;;;1.92;;
31728;SDS011;18309;43.658;1.312;2023-04-24T02:09:12;10.95;;;1.42;;
31728;SDS011;18309;43.658;1.312;2023-04-24T02:11:37;16.92;;;2.28;;
31728;SDS011;18309;43.658;1.312;2023-04-24T02:14:03;8.25;;;1.77;;
31728;SDS011;18309;43.658;1.312;2023-04-24T02:16:28;15.32;;;2.33;;
31728;SDS011;18309;43.658;1.312;2023-04-24T02:18:58;5.80;;;1.35;;
31728;SDS011;18309;43.658;1.312;2023-04-24T02:21:23;8.88;;;1.42;;
31728;SDS011;18309;43.658;1.312;2023-04-24T02:23:49;4.70;;;1.38;;
31728;SDS011;18309;43.658;1.312;2023-04-24T02:26:15;10.05;;;2.13;;
31728;SDS011;18309;43.658;1.312;2023-04-24T02:28:41;10.55;;;1.75;;
31728;SDS011;18309;43.658;1.312;2023-04-24T02:31:07;7.63;;;1.40;;
31728;SDS011;18309;43.658;1.312;2023-04-24T02:33:32;8.15;;;1.92;;
31728;SDS011;18309;43.658;1.312;2023-04-24T02:35:58;11.07;;;2.10;;
31728;SDS011;18309;43.658;1.312;2023-04-24T02:38:24;12.07;;;2.28;;
31728;SDS011;18309;43.658;1.312;2023-04-24T02:40:50;6.28;;;1.65;;
31728;SDS011;18309;43.658;1.312;2023-04-24T02:43:15;13.52;;;1.70;;
31728;SDS011;18309;43.658;1.312;2023-04-24T02:45:41;9.07;;;1.55;;
31728;SDS011;18309;43.658;1.312;2023-04-24T02:48:07;16.13;;;1.75;;
31728;SDS011;18309;43.658;1.312;2023-04-24T02:50:32;14.98;;;2.00;;
31728;SDS011;18309;43.658;1.312;2023-04-24T02:52:58;12.63;;;1.85;;
31728;SDS011;18309;43.658;1.312;2023-04-24T02:55:24;7.00;;;1.40;;
31728;SDS011;18309;43.658;1.312;2023-04-24T02:57:50;9.15;;;1.60;;
31728;SDS011;18309;43.658;1.312;2023-04-24T03:00:15;9.05;;;1.70;;
31728;SDS011;18309;43.658;1.312;2023-04-24T03:02:41;11.65;;;1.92;;
31728;SDS011;18309;43.658;1.312;2023-04-24T03:05:08;11.25;;;2.00;;
31728;SDS011;18309;43.658;1.312;2023-04-24T03:07:34;12.52;;;1.70;;
31728;SDS011;18309;43.658;1.312;2023-04-24T03:10:00;9.18;;;2.00;;
31728;SDS011;18309;43.658;1.312;2023-04-24T03:12:25;9.25;;;1.88;;
31728;SDS011;18309;43.658;1.312;2023-04-24T03:14:51;7.80;;;1.42;;
31728;SDS011;18309;43.658;1.312;2023-04-24T03:17:17;12.98;;;1.48;;
31728;SDS011;18309;43.658;1.312;2023-04-24T03:19:42;8.07;;;1.40;;
31728;SDS011;18309;43.658;1.312;2023-04-24T03:22:08;7.45;;;1.30;;
31728;SDS011;18309;43.658;1.312;2023-04-24T03:24:34;7.93;;;1.50;;
31728;SDS011;18309;43.658;1.312;2023-04-24T03:27:00;12.38;;;1.80;;
31728;SDS011;18309;43.658;1.312;2023-04-24T03:29:25;9.65;;;1.42;;
31728;SDS011;18309;43.658;1.312;2023-04-24T03:31:51;14.07;;;2.05;;
31728;SDS011;18309;43.658;1.312;2023-04-24T03:34:17;11.45;;;1.45;;
31728;SDS011;18309;43.658;1.312;2023-04-24T03:36:43;10.07;;;1.88;;
31728;SDS011;18309;43.658;1.312;2023-04-24T03:39:08;12.27;;;2.00;;
31728;SDS011;18309;43.658;1.312;2023-04-24T03:41:35;8.30;;;1.52;;
31728;SDS011;18309;43.658;1.312;2023-04-24T03:44:00;10.55;;;1.73;;
31728;SDS011;18309;43.658;1.312;2023-04-24T03:46:26;17.40;;;2.22;;
31728;SDS011;18309;43.658;1.312;2023-04-24T03:48:52;10.82;;;1.77;;
31728;SDS011;18309;43.658;1.312;2023-04-24T03:51:17;9.88;;;1.65;;
31728;SDS011;18309;43.658;1.312;2023-04-24T03:53:43;7.30;;;1.42;;
31728;SDS011;18309;43.658;1.312;2023-04-24T03:56:09;12.02;;;2.35;;
31728;SDS011;18309;43.658;1.312;2023-04-24T03:58:34;7.60;;;1.70;;
31728;SDS011;18309;43.658;1.312;2023-04-24T04:01:00;11.00;;;1.70;;
31728;SDS011;18309;43.658;1.312;2023-04-24T04:03:26;12.00;;;2.17;;
31728;SDS011;18309;43.658;1.312;2023-04-24T04:05:51;10.90;;;1.73;;
31728;SDS011;18309;43.658;1.312;2023-04-24T04:08:18;19.77;;;2.95;;
31728;SDS011;18309;43.658;1.312;2023-04-24T04:10:43;11.13;;;1.92;;
31728;SDS011;18309;43.658;1.312;2023-04-24T04:13:09;14.13;;;2.35;;
31728;SDS011;18309;43.658;1.312;2023-04-24T04:15:34;8.43;;;1.58;;
31728;SDS011;18309;43.658;1.312;2023-04-24T04:18:00;14.23;;;1.95;;
31728;SDS011;18309;43.658;1.312;2023-04-24T04:20:26;12.65;;;1.83;;
31728;SDS011;18309;43.658;1.312;2023-04-24T04:22:52;13.38;;;2.10;;
31728;SDS011;18309;43.658;1.312;2023-04-24T04:25:17;10.98;;;1.67;;
31728;SDS011;18309;43.658;1.312;2023-04-24T04:27:44;10.85;;;2.08;;
31728;SDS011;18309;43.658;1.312;2023-04-24T04:30:12;11.98;;;1.50;;
31728;SDS011;18309;43.658;1.312;2023-04-24T04:32:39;13.05;;;2.10;;
31728;SDS011;18309;43.658;1.312;2023-04-24T04:35:04;13.73;;;2.15;;
31728;SDS011;18309;43.658;1.312;2023-04-24T04:37:31;12.00;;;1.63;;
31728;SDS011;18309;43.658;1.312;2023-04-24T04:39:58;19.52;;;2.03;;
31728;SDS011;18309;43.658;1.312;2023-04-24T04:42:24;20.75;;;2.30;;
31728;SDS011;18309;43.658;1.312;2023-04-24T04:44:51;7.30;;;1.95;;
31728;SDS011;18309;43.658;1.312;2023-04-24T04:47:17;9.45;;;1.45;;
31728;SDS011;18309;43.658;1.312;2023-04-24T04:49:47;10.48;;;2.38;;
31728;SDS011;18309;43.658;1.312;2023-04-24T04:52:13;10.63;;;2.00;;
31728;SDS011;18309;43.658;1.312;2023-04-24T04:54:39;8.93;;;1.55;;
31728;SDS011;18309;43.658;1.312;2023-04-24T04:57:05;16.00;;;2.25;;
31728;SDS011;18309;43.658;1.312;2023-04-24T04:59:31;12.32;;;1.85;;
31728;SDS011;18309;43.658;1.312;2023-04-24T05:01:56;7.93;;;1.80;;
31728;SDS011;18309;43.658;1.312;2023-04-24T05:04:22;11.45;;;1.60;;
31728;SDS011;18309;43.658;1.312;2023-04-24T05:06:48;12.25;;;2.25;;
31728;SDS011;18309;43.658;1.312;2023-04-24T05:09:15;13.23;;;2.05;;
31728;SDS011;18309;43.658;1.312;2023-04-24T05:11:41;9.30;;;1.70;;
31728;SDS011;18309;43.658;1.312;2023-04-24T05:14:07;10.02;;;2.33;;
31728;SDS011;18309;43.658;1.312;2023-04-24T05:16:32;8.20;;;1.35;;
31728;SDS011;18309;43.658;1.312;2023-04-24T05:18:58;15.07;;;2.65;;
31728;SDS011;18309;43.658;1.312;2023-04-24T05:21:24;7.95;;;1.63;;
31728;SDS011;18309;43.658;1.312;2023-04-24T05:23:50;16.98;;;1.70;;
31728;SDS011;18309;43.658;1.312;2023-04-24T05:26:16;17.52;;;2.13;;
31728;SDS011;18309;43.658;1.312;2023-04-24T05:28:42;8.60;;;1.50;;
31728;SDS011;18309;43.658;1.312;2023-04-24T05:31:08;10.13;;;1.90;;
31728;SDS011;18309;43.658;1.312;2023-04-24T05:33:34;10.13;;;1.67;;
31728;SDS011;18309;43.658;1.312;2023-04-24T05:35:59;17.50;;;2.40;;
31728;SDS011;18309;43.658;1.312;2023-04-24T05:38:25;11.50;;;1.85;;
31728;SDS011;18309;43.658;1.312;2023-04-24T05:40:51;9.07;;;1.70;;
31728;SDS011;18309;43.658;1.312;2023-04-24T05:43:16;16.90;;;2.17;;
31728;SDS011;18309;43.658;1.312;2023-04-24T05:45:42;17.27;;;2.60;;
31728;SDS011;18309;43.658;1.312;2023-04-24T05:48:08;9.95;;;1.52;;
31728;SDS011;18309;43.658;1.312;2023-04-24T05:50:33;17.67;;;2.15;;
31728;SDS011;18309;43.658;1.312;2023-04-24T05:52:59;11.95;;;1.55;;
31728;SDS011;18309;43.658;1.312;2023-04-24T05:55:26;15.25;;;2.58;;
31728;SDS011;18309;43.658;1.312;2023-04-24T05:57:52;17.35;;;1.73;;
31728;SDS011;18309;43.658;1.312;2023-04-24T06:00:19;16.15;;;2.58;;
31728;SDS011;18309;43.658;1.312;2023-04-24T06:02:45;26.88;;;2.97;;
31728;SDS011;18309;43.658;1.312;2023-04-24T06:05:12;13.60;;;2.58;;
31728;SDS011;18309;43.658;1.312;2023-04-24T06:07:37;13.85;;;1.90;;
31728;SDS011;18309;43.658;1.312;2023-04-24T06:10:03;16.88;;;2.83;;
31728;SDS011;18309;43.658;1.312;2023-04-24T06:12:29;14.05;;;2.25;;
31728;SDS011;18309;43.658;1.312;2023-04-24T06:14:55;12.43;;;2.53;;
31728;SDS011;18309;43.658;1.312;2023-04-24T06:17:21;14.07;;;1.80;;
31728;SDS011;18309;43.658;1.312;2023-04-24T06:19:46;17.15;;;2.40;;
31728;SDS011;18309;43.658;1.312;2023-04-24T06:22:12;12.30;;;2.25;;
31728;SDS011;18309;43.658;1.312;2023-04-24T06:24:39;15.38;;;2.25;;
31728;SDS011;18309;43.658;1.312;2023-04-24T06:27:05;15.73;;;2.83;;
31728;SDS011;18309;43.658;1.312;2023-04-24T06:29:31;16.30;;;2.70;;
31728;SDS011;18309;43.658;1.312;2023-04-24T06:31:58;15.60;;;2.40;;
31728;SDS011;18309;43.658;1.312;2023-04-24T06:34:23;17.15;;;2.53;;
31728;SDS011;18309;43.658;1.312;2023-04-24T06:36:49;16.02;;;3.22;;
31728;SDS011;18309;43.658;1.312;2023-04-24T06:39:15;18.73;;;3.08;;
31728;SDS011;18309;43.658;1.312;2023-04-24T06:41:41;20.02;;;3.47;;
31728;SDS011;18309;43.658;1.312;2023-04-24T06:44:06;15.95;;;2.53;;
31728;SDS011;18309;43.658;1.312;2023-04-24T06:46:32;14.65;;;1.92;;
31728;SDS011;18309;43.658;1.312;2023-04-24T06:48:58;12.07;;;2.60;;
31728;SDS011;18309;43.658;1.312;2023-04-24T06:51:24;19.98;;;2.90;;
31728;SDS011;18309;43.658;1.312;2023-04-24T06:53:51;19.23;;;2.60;;
31728;SDS011;18309;43.658;1.312;2023-04-24T06:56:18;14.38;;;2.63;;
31728;SDS011;18309;43.658;1.312;2023-04-24T06:58:44;16.13;;;3.45;;
31728;SDS011;18309;43.658;1.312;2023-04-24T07:01:10;17.10;;;2.17;;
31728;SDS011;18309;43.658;1.312;2023-04-24T07:03:36;12.98;;;2.13;;
31728;SDS011;18309;43.658;1.312;2023-04-24T07:06:02;13.10;;;2.45;;
31728;SDS011;18309;43.658;1.312;2023-04-24T07:08:28;12.73;;;2.17;;
31728;SDS011;18309;43.658;1.312;2023-04-24T07:10:55;16.02;;;2.60;;
31728;SDS011;18309;43.658;1.312;2023-04-24T07:13:21;13.68;;;2.60;;
31728;SDS011;18309;43.658;1.312;2023-04-24T07:15:48;11.13;;;2.30;;
31728;SDS011;18309;43.658;1.312;2023-04-24T07:20:45;8.13;;;1.80;;
31728;SDS011;18309;43.658;1.312;2023-04-24T07:23:10;6.00;;;1.15;;
31728;SDS011;18309;43.658;1.312;2023-04-24T07:25:36;4.40;;;1.23;;
31728;SDS011;18309;43.658;1.312;2023-04-24T07:28:03;8.20;;;1.38;;
31728;SDS011;18309;43.658;1.312;2023-04-24T07:30:29;4.20;;;0.75;;
31728;SDS011;18309;43.658;1.312;2023-04-24T07:32:57;5.20;;;1.20;;
31728;SDS011;18309;43.658;1.312;2023-04-24T07:35:23;10.60;;;1.23;;
31728;SDS011;18309;43.658;1.312;2023-04-24T07:37:51;9.55;;;1.40;;
31728;SDS011;18309;43.658;1.312;2023-04-24T07:40:17;6.40;;;1.00;;
31728;SDS011;18309;43.658;1.312;2023-04-24T07:42:43;11.55;;;1.25;;
31728;SDS011;18309;43.658;1.312;2023-04-24T07:45:09;10.57;;;1.17;;
31728;SDS011;18309;43.658;1.312;2023-04-24T07:47:35;8.15;;;1.10;;
31728;SDS011;18309;43.658;1.312;2023-04-24T07:50:02;5.95;;;1.20;;
31728;SDS011;18309;43.658;1.312;2023-04-24T07:52:28;8.15;;;1.42;;
31728;SDS011;18309;43.658;1.312;2023-04-24T07:54:54;6.38;;;1.42;;
31728;SDS011;18309;43.658;1.312;2023-04-24T07:57:24;10.35;;;1.38;;
31728;SDS011;18309;43.658;1.312;2023-04-24T07:59:50;5.47;;;1.33;;
31728;SDS011;18309;43.658;1.312;2023-04-24T08:02:15;8.60;;;1.45;;
31728;SDS011;18309;43.658;1.312;2023-04-24T08:04:41;7.93;;;1.33;;
31728;SDS011;18309;43.658;1.312;2023-04-24T08:07:07;14.85;;;1.65;;
31728;SDS011;18309;43.658;1.312;2023-04-24T08:09:34;13.65;;;1.52;;
31728;SDS011;18309;43.658;1.312;2023-04-24T08:11:59;11.15;;;2.08;;
31728;SDS011;18309;43.658;1.312;2023-04-24T08:14:26;9.50;;;1.30;;
31728;SDS011;18309;43.658;1.312;2023-04-24T08:16:53;8.23;;;1.17;;
31728;SDS011;18309;43.658;1.312;2023-04-24T08:19:21;5.85;;;1.40;;
31728;SDS011;18309;43.658;1.312;2023-04-24T08:21:46;10.00;;;1.63;;
31728;SDS011;18309;43.658;1.312;2023-04-24T08:24:12;8.40;;;1.35;;
31728;SDS011;18309;43.658;1.312;2023-04-24T08:26:38;8.32;;;0.88;;
31728;SDS011;18309;43.658;1.312;2023-04-24T08:29:04;6.50;;;1.55;;
31728;SDS011;18309;43.658;1.312;2023-04-24T08:31:31;11.32;;;1.30;;
31728;SDS011;18309;43.658;1.312;2023-04-24T08:33:57;12.63;;;1.50;;
31728;SDS011;18309;43.658;1.312;2023-04-24T08:36:26;11.77;;;1.20;;
31728;SDS011;18309;43.658;1.312;2023-04-24T08:38:52;7.32;;;1.35;;
31728;SDS011;18309;43.658;1.312;2023-04-24T08:41:18;9.02;;;1.10;;
31728;SDS011;18309;43.658;1.312;2023-04-24T08:43:47;8.18;;;1.48;;
31728;SDS011;18309;43.658;1.312;2023-04-24T08:46:14;7.85;;;1.30;;
31728;SDS011;18309;43.658;1.312;2023-04-24T08:48:41;13.60;;;1.83;;
31728;SDS011;18309;43.658;1.312;2023-04-24T08:51:07;6.07;;;1.10;;
31728;SDS011;18309;43.658;1.312;2023-04-24T08:53:34;11.52;;;1.50;;
31728;SDS011;18309;43.658;1.312;2023-04-24T08:56:01;8.00;;;1.35;;
31728;SDS011;18309;43.658;1.312;2023-04-24T08:58:28;10.95;;;1.17;;
31728;SDS011;18309;43.658;1.312;2023-04-24T09:00:55;7.20;;;1.08;;
31728;SDS011;18309;43.658;1.312;2023-04-24T09:03:22;6.78;;;1.85;;
31728;SDS011;18309;43.658;1.312;2023-04-24T09:05:48;5.45;;;0.88;;
31728;SDS011;18309;43.658;1.312;2023-04-24T09:08:16;8.10;;;1.08;;
31728;SDS011;18309;43.658;1.312;2023-04-24T09:10:46;6.70;;;0.90;;
31728;SDS011;18309;43.658;1.312;2023-04-24T09:13:12;5.18;;;0.98;;
31728;SDS011;18309;43.658;1.312;2023-04-24T09:15:39;8.75;;;0.98;;
31728;SDS011;18309;43.658;1.312;2023-04-24T09:18:06;6.07;;;1.17;;
31728;SDS011;18309;43.658;1.312;2023-04-24T09:20:32;5.15;;;1.33;;
31728;SDS011;18309;43.658;1.312;2023-04-24T09:22:58;5.53;;;0.98;;
31728;SDS011;18309;43.658;1.312;2023-04-24T09:25:30;8.75;;;0.82;;
31728;SDS011;18309;43.658;1.312;2023-04-24T09:28:00;5.65;;;0.90;;
31728;SDS011;18309;43.658;1.312;2023-04-24T09:30:30;10.68;;;0.88;;
31728;SDS011;18309;43.658;1.312;2023-04-24T09:33:15;7.35;;;0.90;;
31728;SDS011;18309;43.658;1.312;2023-04-24T09:35:43;9.05;;;1.30;;
31728;SDS011;18309;43.658;1.312;2023-04-24T09:38:14;4.20;;;0.85;;
31728;SDS011;18309;43.658;1.312;2023-04-24T09:40:41;10.23;;;1.00;;
31728;SDS011;18309;43.658;1.312;2023-04-24T09:43:10;7.45;;;1.27;;
31728;SDS011;18309;43.658;1.312;2023-04-24T09:45:36;7.57;;;1.00;;
31728;SDS011;18309;43.658;1.312;2023-04-24T09:48:04;7.97;;;1.05;;
31728;SDS011;18309;43.658;1.312;2023-04-24T09:50:31;6.95;;;1.20;;
31728;SDS011;18309;43.658;1.312;2023-04-24T09:53:00;5.68;;;1.08;;
31728;SDS011;18309;43.658;1.312;2023-04-24T09:55:27;8.63;;;1.10;;
31728;SDS011;18309;43.658;1.312;2023-04-24T09:57:55;7.35;;;1.30;;
31728;SDS011;18309;43.658;1.312;2023-04-24T10:00:26;12.32;;;1.13;;
31728;SDS011;18309;43.658;1.312;2023-04-24T10:05:29;6.63;;;1.13;;
31728;SDS011;18309;43.658;1.312;2023-04-24T10:08:00;4.40;;;0.90;;
31728;SDS011;18309;43.658;1.312;2023-04-24T10:10:34;3.85;;;0.85;;
31728;SDS011;18309;43.658;1.312;2023-04-24T10:13:03;8.23;;;1.25;;
31728;SDS011;18309;43.658;1.312;2023-04-24T10:15:29;6.97;;;1.33;;
31728;SDS011;18309;43.658;1.312;2023-04-24T10:17:55;9.68;;;1.00;;
31728;SDS011;18309;43.658;1.312;2023-04-24T10:20:25;9.25;;;1.10;;
31728;SDS011;18309;43.658;1.312;2023-04-24T10:22:54;8.38;;;1.77;;
31728;SDS011;18309;43.658;1.312;2023-04-24T10:25:21;3.45;;;0.75;;
31728;SDS011;18309;43.658;1.312;2023-04-24T10:27:50;8.95;;;1.00;;
31728;SDS011;18309;43.658;1.312;2023-04-24T10:30:17;4.97;;;0.75;;
31728;SDS011;18309;43.658;1.312;2023-04-24T10:32:44;13.13;;;1.25;;
31728;SDS011;18309;43.658;1.312;2023-04-24T10:35:10;6.68;;;1.10;;
31728;SDS011;18309;43.658;1.312;2023-04-24T10:37:39;8.88;;;1.00;;
31728;SDS011;18309;43.658;1.312;2023-04-24T10:40:26;7.15;;;1.10;;
31728;SDS011;18309;43.658;1.312;2023-04-24T10:42:55;6.57;;;0.70;;
31728;SDS011;18309;43.658;1.312;2023-04-24T10:45:22;7.43;;;0.88;;
31728;SDS011;18309;43.658;1.312;2023-04-24T10:47:58;8.05;;;0.88;;
31728;SDS011;18309;43.658;1.312;2023-04-24T10:50:26;6.65;;;1.00;;
31728;SDS011;18309;43.658;1.312;2023-04-24T10:52:53;10.73;;;1.00;;
31728;SDS011;18309;43.658;1.312;2023-04-24T10:58:10;5.93;;;0.82;;
31728;SDS011;18309;43.658;1.312;2023-04-24T11:00:37;3.15;;;0.65;;
31728;SDS011;18309;43.658;1.312;2023-04-24T11:03:05;9.98;;;1.00;;
31728;SDS011;18309;43.658;1.312;2023-04-24T11:05:52;7.45;;;1.35;;
31728;SDS011;18309;43.658;1.312;2023-04-24T11:08:21;7.10;;;1.00;;
31728;SDS011;18309;43.658;1.312;2023-04-24T11:10:56;7.22;;;0.85;;
31728;SDS011;18309;43.658;1.312;2023-04-24T11:13:24;3.05;;;0.70;;
31728;SDS011;18309;43.658;1.312;2023-04-24T11:18:52;6.00;;;1.20;;
31728;SDS011;18309;43.658;1.312;2023-04-24T11:21:40;7.97;;;1.38;;
31728;SDS011;18309;43.658;1.312;2023-04-24T11:26:56;9.35;;;1.05;;
31728;SDS011;18309;43.658;1.312;2023-04-24T11:29:23;7.65;;;2.05;;
31728;SDS011;18309;43.658;1.312;2023-04-24T11:34:57;5.10;;;0.95;;
31728;SDS011;18309;43.658;1.312;2023-04-24T11:37:27;19.30;;;1.23;;
31728;SDS011;18309;43.658;1.312;2023-04-24T11:39:55;4.28;;;1.10;;
31728;SDS011;18309;43.658;1.312;2023-04-24T11:42:22;4.38;;;0.88;;
31728;SDS011;18309;43.658;1.312;2023-04-24T11:44:49;4.60;;;0.90;;
31728;SDS011;18309;43.658;1.312;2023-04-24T11:47:16;7.68;;;1.63;;
31728;SDS011;18309;43.658;1.312;2023-04-24T11:49:42;10.13;;;1.35;;
31728;SDS011;18309;43.658;1.312;2023-04-24T11:52:08;4.10;;;0.70;;
31728;SDS011;18309;43.658;1.312;2023-04-24T11:54:34;6.20;;;1.17;;
31728;SDS011;18309;43.658;1.312;2023-04-24T11:57:03;5.25;;;1.27;;
31728;SDS011;18309;43.658;1.312;2023-04-24T11:59:29;4.30;;;1.08;;
31728;SDS011;18309;43.658;1.312;2023-04-24T12:02:00;6.63;;;0.65;;
31728;SDS011;18309;43.658;1.312;2023-04-24T12:04:25;4.05;;;0.90;;
31728;SDS011;18309;43.658;1.312;2023-04-24T12:07:03;7.00;;;1.15;;
31728;SDS011;18309;43.658;1.312;2023-04-24T12:09:40;8.15;;;1.30;;
31728;SDS011;18309;43.658;1.312;2023-04-24T12:12:08;6.45;;;1.30;;
31728;SDS011;18309;43.658;1.312;2023-04-24T12:14:42;6.60;;;1.02;;
31728;SDS011;18309;43.658;1.312;2023-04-24T12:17:23;5.20;;;0.70;;
31728;SDS011;18309;43.658;1.312;2023-04-24T12:19:57;7.25;;;1.05;;
31728;SDS011;18309;43.658;1.312;2023-04-24T12:22:24;7.47;;;1.38;;
31728;SDS011;18309;43.658;1.312;2023-04-24T12:24:57;6.65;;;1.05;;
31728;SDS011;18309;43.658;1.312;2023-04-24T12:27:30;4.90;;;0.98;;
31728;SDS011;18309;43.658;1.312;2023-04-24T12:29:58;8.38;;;1.23;;
31728;SDS011;18309;43.658;1.312;2023-04-24T12:32:25;7.15;;;1.05;;
31728;SDS011;18309;43.658;1.312;2023-04-24T12:34:51;5.07;;;0.63;;
31728;SDS011;18309;43.658;1.312;2023-04-24T12:37:19;9.73;;;1.55;;
31728;SDS011;18309;43.658;1.312;2023-04-24T12:42:32;5.82;;;1.13;;
31728;SDS011;18309;43.658;1.312;2023-04-24T12:45:00;6.90;;;0.90;;
31728;SDS011;18309;43.658;1.312;2023-04-24T12:47:30;6.45;;;0.80;;
31728;SDS011;18309;43.658;1.312;2023-04-24T12:49:56;4.03;;;0.70;;
31728;SDS011;18309;43.658;1.312;2023-04-24T12:52:22;3.25;;;0.88;;
31728;SDS011;18309;43.658;1.312;2023-04-24T12:54:49;5.30;;;0.60;;
31728;SDS011;18309;43.658;1.312;2023-04-24T12:57:16;7.38;;;0.93;;
31728;SDS011;18309;43.658;1.312;2023-04-24T12:59:42;4.45;;;0.80;;
31728;SDS011;18309;43.658;1.312;2023-04-24T13:02:09;5.68;;;1.33;;
31728;SDS011;18309;43.658;1.312;2023-04-24T13:04:35;7.10;;;0.70;;
31728;SDS011;18309;43.658;1.312;2023-04-24T13:07:01;10.73;;;1.98;;
31728;SDS011;18309;43.658;1.312;2023-04-24T13:09:27;8.05;;;1.15;;
31728;SDS011;18309;43.658;1.312;2023-04-24T13:11:53;7.80;;;1.35;;
31728;SDS011;18309;43.658;1.312;2023-04-24T13:14:20;7.15;;;1.35;;
31728;SDS011;18309;43.658;1.312;2023-04-24T13:16:45;9.88;;;1.15;;
31728;SDS011;18309;43.658;1.312;2023-04-24T13:19:11;3.55;;;1.02;;
31728;SDS011;18309;43.658;1.312;2023-04-24T13:21:37;4.35;;;0.88;;
31728;SDS011;18309;43.658;1.312;2023-04-24T13:24:03;7.68;;;1.50;;
31728;SDS011;18309;43.658;1.312;2023-04-24T13:26:30;4.53;;;1.02;;
31728;SDS011;18309;43.658;1.312;2023-04-24T13:28:55;13.15;;;1.77;;
31728;SDS011;18309;43.658;1.312;2023-04-24T13:31:21;6.45;;;0.90;;
31728;SDS011;18309;43.658;1.312;2023-04-24T13:33:47;3.83;;;0.82;;
31728;SDS011;18309;43.658;1.312;2023-04-24T13:36:13;10.30;;;0.95;;
31728;SDS011;18309;43.658;1.312;2023-04-24T13:38:38;8.32;;;1.40;;
31728;SDS011;18309;43.658;1.312;2023-04-24T13:41:04;6.63;;;0.98;;
31728;SDS011;18309;43.658;1.312;2023-04-24T13:43:30;2.70;;;0.52;;
31728;SDS011;18309;43.658;1.312;2023-04-24T13:45:56;4.45;;;1.23;;
31728;SDS011;18309;43.658;1.312;2023-04-24T13:48:21;5.85;;;1.20;;
31728;SDS011;18309;43.658;1.312;2023-04-24T13:50:47;7.78;;;0.88;;
31728;SDS011;18309;43.658;1.312;2023-04-24T13:53:14;6.20;;;1.10;;
31728;SDS011;18309;43.658;1.312;2023-04-24T13:55:40;5.80;;;0.82;;
31728;SDS011;18309;43.658;1.312;2023-04-24T13:58:06;2.80;;;0.77;;
31728;SDS011;18309;43.658;1.312;2023-04-24T14:00:32;4.85;;;0.85;;
31728;SDS011;18309;43.658;1.312;2023-04-24T14:02:58;7.78;;;1.00;;
31728;SDS011;18309;43.658;1.312;2023-04-24T14:05:24;7.28;;;1.05;;
31728;SDS011;18309;43.658;1.312;2023-04-24T14:07:50;6.72;;;0.95;;
31728;SDS011;18309;43.658;1.312;2023-04-24T14:10:16;7.32;;;1.13;;
31728;SDS011;18309;43.658;1.312;2023-04-24T14:12:41;11.60;;;0.98;;
31728;SDS011;18309;43.658;1.312;2023-04-24T14:15:07;7.63;;;0.90;;
31728;SDS011;18309;43.658;1.312;2023-04-24T14:17:34;7.95;;;1.50;;
31728;SDS011;18309;43.658;1.312;2023-04-24T14:19:59;7.90;;;1.58;;
31728;SDS011;18309;43.658;1.312;2023-04-24T14:22:25;8.43;;;1.13;;
31728;SDS011;18309;43.658;1.312;2023-04-24T14:24:51;4.75;;;0.75;;
31728;SDS011;18309;43.658;1.312;2023-04-24T14:27:17;3.58;;;0.73;;
31728;SDS011;18309;43.658;1.312;2023-04-24T14:29:42;7.90;;;0.82;;
31728;SDS011;18309;43.658;1.312;2023-04-24T14:32:10;7.00;;;1.35;;
31728;SDS011;18309;43.658;1.312;2023-04-24T14:34:35;4.88;;;0.93;;
31728;SDS011;18309;43.658;1.312;2023-04-24T14:37:01;7.68;;;1.40;;
31728;SDS011;18309;43.658;1.312;2023-04-24T14:39:27;7.88;;;1.60;;
31728;SDS011;18309;43.658;1.312;2023-04-24T14:41:54;5.20;;;1.05;;
31728;SDS011;18309;43.658;1.312;2023-04-24T14:44:20;4.22;;;1.05;;
31728;SDS011;18309;43.658;1.312;2023-04-24T14:46:47;7.90;;;0.98;;
31728;SDS011;18309;43.658;1.312;2023-04-24T14:49:14;7.47;;;1.23;;
31728;SDS011;18309;43.658;1.312;2023-04-24T14:51:40;6.30;;;1.08;;
31728;SDS011;18309;43.658;1.312;2023-04-24T14:54:07;8.13;;;1.20;;
31728;SDS011;18309;43.658;1.312;2023-04-24T14:56:33;5.05;;;0.95;;
31728;SDS011;18309;43.658;1.312;2023-04-24T14:58:59;8.25;;;1.63;;